sensor_id;sensor_type;location;lat;lon;timestamp;P1;durP1;ratioP1;P2;durP2;ratioP2
35364;SDS011;21464;48.112;11.530;2023-04-03T00:01:45;9.17;;;8.27;;
35364;SDS011;21464;48.112;11.530;2023-04-03T00:04:12;10.00;;;8.87;;
35364;SDS011;21464;48.112;11.530;2023-04-03T00:06:38;9.63;;;8.70;;
35364;SDS011;21464;48.112;11.530;2023-04-03T00:09:04;9.87;;;8.13;;
35364;SDS011;21464;48.112;11.530;2023-04-03T00:11:30;9.53;;;8.10;;
35364;SDS011;21464;48.112;11.530;2023-04-03T00:13:56;10.30;;;8.83;;
35364;SDS011;21464;48.112;11.530;2023-04-03T00:16:23;9.50;;;8.30;;
35364;SDS011;21464;48.112;11.530;2023-04-03T00:18:49;9.13;;;8.23;;
35364;SDS011;21464;48.112;11.530;2023-04-03T00:21:15;8.93;;;7.97;;
35364;SDS011;21464;48.112;11.530;2023-04-03T00:23:42;9.47;;;8.47;;
35364;SDS011;21464;48.112;11.530;2023-04-03T00:26:08;9.17;;;8.27;;
35364;SDS011;21464;48.112;11.530;2023-04-03T00:28:34;9.00;;;8.10;;
35364;SDS011;21464;48.112;11.530;2023-04-03T00:31:01;8.43;;;7.53;;
35364;SDS011;21464;48.112;11.530;2023-04-03T00:33:27;8.70;;;7.80;;
35364;SDS011;21464;48.112;11.530;2023-04-03T00:35:53;8.53;;;7.73;;
35364;SDS011;21464;48.112;11.530;2023-04-03T00:38:20;9.03;;;8.17;;
35364;SDS011;21464;48.112;11.530;2023-04-03T00:40:47;8.53;;;7.73;;
35364;SDS011;21464;48.112;11.530;2023-04-03T00:43:20;9.10;;;8.30;;
35364;SDS011;21464;48.112;11.530;2023-04-03T00:45:48;8.93;;;7.87;;
35364;SDS011;21464;48.112;11.530;2023-04-03T00:48:23;8.43;;;7.63;;
35364;SDS011;21464;48.112;11.530;2023-04-03T00:50:54;7.10;;;6.33;;
35364;SDS011;21464;48.112;11.530;2023-04-03T00:53:22;10.90;;;8.37;;
35364;SDS011;21464;48.112;11.530;2023-04-03T00:55:51;8.27;;;7.47;;
35364;SDS011;21464;48.112;11.530;2023-04-03T00:58:19;10.90;;;8.07;;
35364;SDS011;21464;48.112;11.530;2023-04-03T01:00:48;8.40;;;7.07;;
35364;SDS011;21464;48.112;11.530;2023-04-03T01:03:21;7.63;;;6.93;;
35364;SDS011;21464;48.112;11.530;2023-04-03T01:05:48;7.70;;;7.00;;
35364;SDS011;21464;48.112;11.530;2023-04-03T01:08:15;10.10;;;7.53;;
35364;SDS011;21464;48.112;11.530;2023-04-03T01:10:41;8.27;;;7.03;;
35364;SDS011;21464;48.112;11.530;2023-04-03T01:13:18;7.23;;;6.53;;
35364;SDS011;21464;48.112;11.530;2023-04-03T01:15:46;8.77;;;6.80;;
35364;SDS011;21464;48.112;11.530;2023-04-03T01:18:12;8.43;;;7.00;;
35364;SDS011;21464;48.112;11.530;2023-04-03T01:20:45;7.77;;;6.97;;
35364;SDS011;21464;48.112;11.530;2023-04-03T01:25:53;7.13;;;6.53;;
35364;SDS011;21464;48.112;11.530;2023-04-03T01:28:23;7.90;;;7.10;;
35364;SDS011;21464;48.112;11.530;2023-04-03T01:34:06;8.70;;;7.43;;
35364;SDS011;21464;48.112;11.530;2023-04-03T01:36:32;8.50;;;7.77;;
35364;SDS011;21464;48.112;11.530;2023-04-03T01:38:59;8.57;;;7.67;;
35364;SDS011;21464;48.112;11.530;2023-04-03T01:41:26;8.10;;;7.30;;
35364;SDS011;21464;48.112;11.530;2023-04-03T01:43:57;8.33;;;7.53;;
35364;SDS011;21464;48.112;11.530;2023-04-03T01:46:24;9.07;;;8.17;;
35364;SDS011;21464;48.112;11.530;2023-04-03T01:48:50;8.37;;;7.53;;
35364;SDS011;21464;48.112;11.530;2023-04-03T01:51:16;8.87;;;7.97;;
35364;SDS011;21464;48.112;11.530;2023-04-03T01:53:43;8.47;;;7.63;;
35364;SDS011;21464;48.112;11.530;2023-04-03T01:56:09;9.00;;;7.83;;
35364;SDS011;21464;48.112;11.530;2023-04-03T01:58:35;8.30;;;7.50;;
35364;SDS011;21464;48.112;11.530;2023-04-03T02:01:02;8.47;;;7.57;;
35364;SDS011;21464;48.112;11.530;2023-04-03T02:03:29;7.53;;;6.90;;
35364;SDS011;21464;48.112;11.530;2023-04-03T02:05:55;9.03;;;7.67;;
35364;SDS011;21464;48.112;11.530;2023-04-03T02:08:21;7.90;;;7.10;;
35364;SDS011;21464;48.112;11.530;2023-04-03T02:10:48;8.57;;;7.77;;
35364;SDS011;21464;48.112;11.530;2023-04-03T02:13:15;8.50;;;7.70;;
35364;SDS011;21464;48.112;11.530;2023-04-03T02:15:42;7.47;;;6.77;;
35364;SDS011;21464;48.112;11.530;2023-04-03T02:18:08;8.00;;;6.93;;
35364;SDS011;21464;48.112;11.530;2023-04-03T02:20:35;7.60;;;7.00;;
35364;SDS011;21464;48.112;11.530;2023-04-03T02:23:01;8.87;;;7.10;;
35364;SDS011;21464;48.112;11.530;2023-04-03T02:25:29;7.50;;;6.80;;
35364;SDS011;21464;48.112;11.530;2023-04-03T02:27:56;7.70;;;7.00;;
35364;SDS011;21464;48.112;11.530;2023-04-03T02:30:23;7.83;;;7.03;;
35364;SDS011;21464;48.112;11.530;2023-04-03T02:32:49;7.87;;;7.03;;
35364;SDS011;21464;48.112;11.530;2023-04-03T02:35:15;7.47;;;6.77;;
35364;SDS011;21464;48.112;11.530;2023-04-03T02:37:42;7.30;;;6.20;;
35364;SDS011;21464;48.112;11.530;2023-04-03T02:40:08;7.40;;;6.70;;
35364;SDS011;21464;48.112;11.530;2023-04-03T02:42:35;9.17;;;6.47;;
35364;SDS011;21464;48.112;11.530;2023-04-03T02:45:02;6.50;;;5.90;;
35364;SDS011;21464;48.112;11.530;2023-04-03T02:47:29;8.43;;;6.03;;
35364;SDS011;21464;48.112;11.530;2023-04-03T02:49:55;7.07;;;6.10;;
35364;SDS011;21464;48.112;11.530;2023-04-03T02:52:22;6.17;;;5.57;;
35364;SDS011;21464;48.112;11.530;2023-04-03T02:54:49;6.67;;;6.07;;
35364;SDS011;21464;48.112;11.530;2023-04-03T02:57:16;6.70;;;5.90;;
35364;SDS011;21464;48.112;11.530;2023-04-03T02:59:42;6.40;;;5.50;;
35364;SDS011;21464;48.112;11.530;2023-04-03T03:02:11;6.20;;;5.60;;
35364;SDS011;21464;48.112;11.530;2023-04-03T03:04:37;7.50;;;5.90;;
35364;SDS011;21464;48.112;11.530;2023-04-03T03:07:03;6.07;;;5.47;;
35364;SDS011;21464;48.112;11.530;2023-04-03T03:09:30;6.13;;;5.50;;
35364;SDS011;21464;48.112;11.530;2023-04-03T03:11:56;6.00;;;5.43;;
35364;SDS011;21464;48.112;11.530;2023-04-03T03:14:23;6.40;;;5.30;;
35364;SDS011;21464;48.112;11.530;2023-04-03T03:16:49;5.87;;;5.37;;
35364;SDS011;21464;48.112;11.530;2023-04-03T03:19:15;7.63;;;5.20;;
35364;SDS011;21464;48.112;11.530;2023-04-03T03:21:42;5.30;;;4.90;;
35364;SDS011;21464;48.112;11.530;2023-04-03T03:24:08;6.10;;;5.50;;
35364;SDS011;21464;48.112;11.530;2023-04-03T03:26:34;5.57;;;5.07;;
35364;SDS011;21464;48.112;11.530;2023-04-03T03:29:01;5.83;;;5.20;;
35364;SDS011;21464;48.112;11.530;2023-04-03T03:31:29;5.60;;;5.10;;
35364;SDS011;21464;48.112;11.530;2023-04-03T03:33:55;5.40;;;4.83;;
35364;SDS011;21464;48.112;11.530;2023-04-03T03:36:22;6.20;;;5.60;;
35364;SDS011;21464;48.112;11.530;2023-04-03T03:38:48;5.70;;;5.17;;
35364;SDS011;21464;48.112;11.530;2023-04-03T03:41:15;5.00;;;4.60;;
35364;SDS011;21464;48.112;11.530;2023-04-03T03:43:43;6.23;;;5.27;;
35364;SDS011;21464;48.112;11.530;2023-04-03T03:46:11;6.47;;;4.97;;
35364;SDS011;21464;48.112;11.530;2023-04-03T03:48:37;6.63;;;5.13;;
35364;SDS011;21464;48.112;11.530;2023-04-03T03:51:04;5.20;;;4.70;;
35364;SDS011;21464;48.112;11.530;2023-04-03T03:53:34;4.97;;;4.63;;
35364;SDS011;21464;48.112;11.530;2023-04-03T03:56:05;5.03;;;4.63;;
35364;SDS011;21464;48.112;11.530;2023-04-03T03:58:32;6.00;;;4.47;;
35364;SDS011;21464;48.112;11.530;2023-04-03T04:01:02;4.87;;;4.43;;
35364;SDS011;21464;48.112;11.530;2023-04-03T04:03:30;5.10;;;4.50;;
35364;SDS011;21464;48.112;11.530;2023-04-03T04:05:56;5.03;;;4.53;;
35364;SDS011;21464;48.112;11.530;2023-04-03T04:08:23;5.53;;;4.53;;
35364;SDS011;21464;48.112;11.530;2023-04-03T04:10:50;6.33;;;4.70;;
35364;SDS011;21464;48.112;11.530;2023-04-03T04:13:18;4.87;;;4.33;;
35364;SDS011;21464;48.112;11.530;2023-04-03T04:15:44;4.60;;;4.20;;
35364;SDS011;21464;48.112;11.530;2023-04-03T04:18:12;5.27;;;4.70;;
35364;SDS011;21464;48.112;11.530;2023-04-03T04:20:41;4.93;;;4.50;;
35364;SDS011;21464;48.112;11.530;2023-04-03T04:23:08;4.73;;;4.33;;
35364;SDS011;21464;48.112;11.530;2023-04-03T04:25:36;5.00;;;4.60;;
35364;SDS011;21464;48.112;11.530;2023-04-03T04:28:02;4.70;;;4.20;;
35364;SDS011;21464;48.112;11.530;2023-04-03T04:30:28;5.67;;;4.70;;
35364;SDS011;21464;48.112;11.530;2023-04-03T04:32:57;5.20;;;4.67;;
35364;SDS011;21464;48.112;11.530;2023-04-03T04:35:24;5.50;;;5.00;;
35364;SDS011;21464;48.112;11.530;2023-04-03T04:37:51;7.43;;;5.93;;
35364;SDS011;21464;48.112;11.530;2023-04-03T04:40:18;5.30;;;4.90;;
35364;SDS011;21464;48.112;11.530;2023-04-03T04:42:44;4.83;;;4.43;;
35364;SDS011;21464;48.112;11.530;2023-04-03T04:45:11;5.30;;;4.90;;
35364;SDS011;21464;48.112;11.530;2023-04-03T04:47:39;4.90;;;4.40;;
35364;SDS011;21464;48.112;11.530;2023-04-03T04:50:06;4.70;;;4.30;;
35364;SDS011;21464;48.112;11.530;2023-04-03T04:52:33;6.20;;;5.60;;
35364;SDS011;21464;48.112;11.530;2023-04-03T04:54:59;5.37;;;4.87;;
35364;SDS011;21464;48.112;11.530;2023-04-03T04:57:26;6.13;;;5.00;;
35364;SDS011;21464;48.112;11.530;2023-04-03T04:59:52;5.17;;;4.77;;
35364;SDS011;21464;48.112;11.530;2023-04-03T05:02:18;5.50;;;5.00;;
35364;SDS011;21464;48.112;11.530;2023-04-03T05:04:45;6.53;;;5.00;;
35364;SDS011;21464;48.112;11.530;2023-04-03T05:07:18;6.07;;;4.93;;
35364;SDS011;21464;48.112;11.530;2023-04-03T05:09:44;4.97;;;4.47;;
35364;SDS011;21464;48.112;11.530;2023-04-03T05:12:12;5.03;;;4.53;;
35364;SDS011;21464;48.112;11.530;2023-04-03T05:14:45;5.27;;;4.67;;
35364;SDS011;21464;48.112;11.530;2023-04-03T05:17:11;5.17;;;4.77;;
35364;SDS011;21464;48.112;11.530;2023-04-03T05:19:41;4.53;;;4.17;;
35364;SDS011;21464;48.112;11.530;2023-04-03T05:22:09;6.23;;;4.40;;
35364;SDS011;21464;48.112;11.530;2023-04-03T05:24:35;4.80;;;4.40;;
35364;SDS011;21464;48.112;11.530;2023-04-03T05:27:02;5.80;;;4.83;;
35364;SDS011;21464;48.112;11.530;2023-04-03T05:29:30;6.00;;;4.60;;
35364;SDS011;21464;48.112;11.530;2023-04-03T05:31:58;4.43;;;4.03;;
35364;SDS011;21464;48.112;11.530;2023-04-03T05:34:24;4.67;;;4.30;;
35364;SDS011;21464;48.112;11.530;2023-04-03T05:36:52;4.67;;;4.27;;
35364;SDS011;21464;48.112;11.530;2023-04-03T05:39:19;4.77;;;4.30;;
35364;SDS011;21464;48.112;11.530;2023-04-03T05:41:47;6.17;;;4.50;;
35364;SDS011;21464;48.112;11.530;2023-04-03T05:44:13;4.80;;;4.30;;
35364;SDS011;21464;48.112;11.530;2023-04-03T05:46:41;5.77;;;4.80;;
35364;SDS011;21464;48.112;11.530;2023-04-03T05:49:09;7.00;;;4.83;;
35364;SDS011;21464;48.112;11.530;2023-04-03T05:51:37;6.67;;;4.87;;
35364;SDS011;21464;48.112;11.530;2023-04-03T05:54:19;4.80;;;4.27;;
35364;SDS011;21464;48.112;11.530;2023-04-03T05:56:54;11.53;;;8.43;;
35364;SDS011;21464;48.112;11.530;2023-04-03T05:59:21;7.50;;;6.67;;
35364;SDS011;21464;48.112;11.530;2023-04-03T06:01:50;5.30;;;4.23;;
35364;SDS011;21464;48.112;11.530;2023-04-03T06:04:17;5.37;;;4.47;;
35364;SDS011;21464;48.112;11.530;2023-04-03T06:09:15;5.17;;;4.67;;
35364;SDS011;21464;48.112;11.530;2023-04-03T06:11:43;8.83;;;6.63;;
35364;SDS011;21464;48.112;11.530;2023-04-03T06:14:10;6.30;;;5.20;;
35364;SDS011;21464;48.112;11.530;2023-04-03T06:16:36;7.30;;;5.57;;
35364;SDS011;21464;48.112;11.530;2023-04-03T06:19:10;6.07;;;4.87;;
35364;SDS011;21464;48.112;11.530;2023-04-03T06:21:40;5.97;;;5.03;;
35364;SDS011;21464;48.112;11.530;2023-04-03T06:24:07;6.40;;;4.70;;
35364;SDS011;21464;48.112;11.530;2023-04-03T06:26:35;7.97;;;6.53;;
35364;SDS011;21464;48.112;11.530;2023-04-03T06:29:01;6.80;;;4.97;;
35364;SDS011;21464;48.112;11.530;2023-04-03T06:31:28;5.00;;;4.50;;
35364;SDS011;21464;48.112;11.530;2023-04-03T06:33:54;6.23;;;4.63;;
35364;SDS011;21464;48.112;11.530;2023-04-03T06:36:22;6.33;;;5.70;;
35364;SDS011;21464;48.112;11.530;2023-04-03T06:38:48;6.37;;;4.83;;
35364;SDS011;21464;48.112;11.530;2023-04-03T06:41:15;5.13;;;4.23;;
35364;SDS011;21464;48.112;11.530;2023-04-03T06:43:42;5.10;;;3.90;;
35364;SDS011;21464;48.112;11.530;2023-04-03T06:46:12;5.70;;;4.83;;
35364;SDS011;21464;48.112;11.530;2023-04-03T06:48:42;5.57;;;4.77;;
35364;SDS011;21464;48.112;11.530;2023-04-03T06:53:53;5.27;;;4.73;;
35364;SDS011;21464;48.112;11.530;2023-04-03T06:56:21;5.73;;;4.30;;
35364;SDS011;21464;48.112;11.530;2023-04-03T06:58:48;4.80;;;4.27;;
35364;SDS011;21464;48.112;11.530;2023-04-03T07:01:15;5.47;;;4.73;;
35364;SDS011;21464;48.112;11.530;2023-04-03T07:03:42;4.47;;;4.03;;
35364;SDS011;21464;48.112;11.530;2023-04-03T07:06:09;4.57;;;4.17;;
35364;SDS011;21464;48.112;11.530;2023-04-03T07:08:37;4.83;;;4.23;;
35364;SDS011;21464;48.112;11.530;2023-04-03T07:11:03;4.37;;;4.03;;
35364;SDS011;21464;48.112;11.530;2023-04-03T07:13:30;4.20;;;3.90;;
35364;SDS011;21464;48.112;11.530;2023-04-03T07:15:57;4.50;;;4.10;;
35364;SDS011;21464;48.112;11.530;2023-04-03T07:18:23;5.73;;;4.20;;
35364;SDS011;21464;48.112;11.530;2023-04-03T07:20:49;5.87;;;4.30;;
35364;SDS011;21464;48.112;11.530;2023-04-03T07:23:16;5.47;;;4.20;;
35364;SDS011;21464;48.112;11.530;2023-04-03T07:25:43;4.50;;;4.10;;
35364;SDS011;21464;48.112;11.530;2023-04-03T07:28:12;4.80;;;4.00;;
35364;SDS011;21464;48.112;11.530;2023-04-03T07:30:43;4.50;;;4.10;;
35364;SDS011;21464;48.112;11.530;2023-04-03T07:33:13;4.50;;;4.10;;
35364;SDS011;21464;48.112;11.530;2023-04-03T07:35:41;4.63;;;4.17;;
35364;SDS011;21464;48.112;11.530;2023-04-03T07:38:08;4.57;;;4.17;;
35364;SDS011;21464;48.112;11.530;2023-04-03T07:40:35;5.03;;;4.40;;
35364;SDS011;21464;48.112;11.530;2023-04-03T07:43:02;5.00;;;4.50;;
35364;SDS011;21464;48.112;11.530;2023-04-03T07:45:28;4.87;;;4.40;;
35364;SDS011;21464;48.112;11.530;2023-04-03T07:47:54;5.33;;;4.40;;
35364;SDS011;21464;48.112;11.530;2023-04-03T07:50:20;5.77;;;4.30;;
35364;SDS011;21464;48.112;11.530;2023-04-03T07:52:47;4.73;;;4.13;;
35364;SDS011;21464;48.112;11.530;2023-04-03T07:55:14;5.00;;;4.60;;
35364;SDS011;21464;48.112;11.530;2023-04-03T07:57:40;5.63;;;4.90;;
35364;SDS011;21464;48.112;11.530;2023-04-03T08:00:07;6.30;;;4.57;;
35364;SDS011;21464;48.112;11.530;2023-04-03T08:02:40;6.77;;;4.90;;
35364;SDS011;21464;48.112;11.530;2023-04-03T08:05:07;5.33;;;4.83;;
35364;SDS011;21464;48.112;11.530;2023-04-03T08:07:33;6.57;;;5.87;;
35364;SDS011;21464;48.112;11.530;2023-04-03T08:10:00;8.63;;;5.97;;
35364;SDS011;21464;48.112;11.530;2023-04-03T08:12:26;5.67;;;4.87;;
35364;SDS011;21464;48.112;11.530;2023-04-03T08:14:54;8.33;;;6.03;;
35364;SDS011;21464;48.112;11.530;2023-04-03T08:17:20;5.93;;;5.33;;
35364;SDS011;21464;48.112;11.530;2023-04-03T08:19:46;6.47;;;5.87;;
35364;SDS011;21464;48.112;11.530;2023-04-03T08:22:12;6.97;;;5.50;;
35364;SDS011;21464;48.112;11.530;2023-04-03T08:24:39;7.30;;;6.60;;
35364;SDS011;21464;48.112;11.530;2023-04-03T08:27:05;11.80;;;7.93;;
35364;SDS011;21464;48.112;11.530;2023-04-03T08:29:31;7.90;;;7.10;;
35364;SDS011;21464;48.112;11.530;2023-04-03T08:31:57;7.10;;;6.33;;
35364;SDS011;21464;48.112;11.530;2023-04-03T08:34:23;7.63;;;6.80;;
35364;SDS011;21464;48.112;11.530;2023-04-03T08:36:50;6.73;;;6.07;;
35364;SDS011;21464;48.112;11.530;2023-04-03T08:39:16;10.50;;;7.40;;
35364;SDS011;21464;48.112;11.530;2023-04-03T08:41:43;7.10;;;6.47;;
35364;SDS011;21464;48.112;11.530;2023-04-03T08:44:24;7.60;;;6.00;;
35364;SDS011;21464;48.112;11.530;2023-04-03T08:46:55;6.13;;;5.50;;
35364;SDS011;21464;48.112;11.530;2023-04-03T08:51:58;6.60;;;5.83;;
35364;SDS011;21464;48.112;11.530;2023-04-03T08:54:30;6.00;;;5.47;;
35364;SDS011;21464;48.112;11.530;2023-04-03T08:57:00;6.40;;;5.80;;
35364;SDS011;21464;48.112;11.530;2023-04-03T08:59:29;6.97;;;5.73;;
35364;SDS011;21464;48.112;11.530;2023-04-03T09:01:59;8.50;;;6.27;;
35364;SDS011;21464;48.112;11.530;2023-04-03T09:04:28;6.30;;;5.70;;
35364;SDS011;21464;48.112;11.530;2023-04-03T09:06:58;6.03;;;5.53;;
35364;SDS011;21464;48.112;11.530;2023-04-03T09:09:35;6.13;;;5.63;;
35364;SDS011;21464;48.112;11.530;2023-04-03T09:12:26;7.90;;;6.13;;
35364;SDS011;21464;48.112;11.530;2023-04-03T09:15:03;7.10;;;6.33;;
35364;SDS011;21464;48.112;11.530;2023-04-03T09:26:02;5.80;;;5.30;;
35364;SDS011;21464;48.112;11.530;2023-04-03T09:28:36;6.47;;;4.93;;
35364;SDS011;21464;48.112;11.530;2023-04-03T09:31:18;6.00;;;5.40;;
35364;SDS011;21464;48.112;11.530;2023-04-03T09:33:46;6.30;;;5.57;;
35364;SDS011;21464;48.112;11.530;2023-04-03T09:39:08;7.00;;;6.03;;
35364;SDS011;21464;48.112;11.530;2023-04-03T09:41:36;6.53;;;5.80;;
35364;SDS011;21464;48.112;11.530;2023-04-03T09:44:17;5.43;;;5.03;;
35364;SDS011;21464;48.112;11.530;2023-04-03T09:46:46;6.53;;;4.57;;
35364;SDS011;21464;48.112;11.530;2023-04-03T09:49:13;5.20;;;4.80;;
35364;SDS011;21464;48.112;11.530;2023-04-03T09:51:39;5.50;;;4.90;;
35364;SDS011;21464;48.112;11.530;2023-04-03T09:54:26;5.30;;;4.80;;
35364;SDS011;21464;48.112;11.530;2023-04-03T09:56:58;4.90;;;4.60;;
35364;SDS011;21464;48.112;11.530;2023-04-03T09:59:29;5.73;;;5.13;;
35364;SDS011;21464;48.112;11.530;2023-04-03T10:04:40;5.13;;;4.77;;
35364;SDS011;21464;48.112;11.530;2023-04-03T10:09:57;6.90;;;5.87;;
35364;SDS011;21464;48.112;11.530;2023-04-03T10:12:25;6.10;;;5.50;;
35364;SDS011;21464;48.112;11.530;2023-04-03T10:15:01;5.87;;;4.70;;
35364;SDS011;21464;48.112;11.530;2023-04-03T10:17:43;6.87;;;5.43;;
35364;SDS011;21464;48.112;11.530;2023-04-03T10:26:07;5.50;;;5.00;;
35364;SDS011;21464;48.112;11.530;2023-04-03T10:31:27;6.87;;;4.80;;
35364;SDS011;21464;48.112;11.530;2023-04-03T10:36:43;5.67;;;4.57;;
35364;SDS011;21464;48.112;11.530;2023-04-03T10:39:39;4.70;;;4.40;;
35364;SDS011;21464;48.112;11.530;2023-04-03T10:42:42;5.10;;;4.70;;
35364;SDS011;21464;48.112;11.530;2023-04-03T10:52:55;4.90;;;4.40;;
35364;SDS011;21464;48.112;11.530;2023-04-03T10:55:38;5.70;;;5.10;;
35364;SDS011;21464;48.112;11.530;2023-04-03T10:58:05;5.00;;;4.50;;
35364;SDS011;21464;48.112;11.530;2023-04-03T11:03:09;5.03;;;4.53;;
35364;SDS011;21464;48.112;11.530;2023-04-03T11:05:57;7.27;;;4.67;;
35364;SDS011;21464;48.112;11.530;2023-04-03T11:11:00;4.53;;;4.13;;
35364;SDS011;21464;48.112;11.530;2023-04-03T11:16:02;5.47;;;4.80;;
35364;SDS011;21464;48.112;11.530;2023-04-03T11:24:34;5.73;;;4.20;;
35364;SDS011;21464;48.112;11.530;2023-04-03T11:27:02;6.93;;;5.10;;
35364;SDS011;21464;48.112;11.530;2023-04-03T11:29:31;5.37;;;4.30;;
35364;SDS011;21464;48.112;11.530;2023-04-03T11:34:39;5.40;;;4.00;;
35364;SDS011;21464;48.112;11.530;2023-04-03T11:39:47;5.33;;;3.70;;
35364;SDS011;21464;48.112;11.530;2023-04-03T11:58:02;4.90;;;3.50;;
35364;SDS011;21464;48.112;11.530;2023-04-03T12:08:28;3.53;;;3.23;;
35364;SDS011;21464;48.112;11.530;2023-04-03T12:13:40;3.60;;;2.93;;
35364;SDS011;21464;48.112;11.530;2023-04-03T12:18:56;2.97;;;2.70;;
35364;SDS011;21464;48.112;11.530;2023-04-03T12:26:36;4.20;;;2.67;;
35364;SDS011;21464;48.112;11.530;2023-04-03T12:37:29;2.73;;;2.53;;
35364;SDS011;21464;48.112;11.530;2023-04-03T12:45:46;4.50;;;2.87;;
35364;SDS011;21464;48.112;11.530;2023-04-03T12:48:17;2.77;;;2.57;;
35364;SDS011;21464;48.112;11.530;2023-04-03T12:50:45;2.53;;;2.33;;
35364;SDS011;21464;48.112;11.530;2023-04-03T12:53:13;3.37;;;2.63;;
35364;SDS011;21464;48.112;11.530;2023-04-03T12:55:43;3.27;;;2.53;;
35364;SDS011;21464;48.112;11.530;2023-04-03T12:58:14;2.87;;;2.57;;
35364;SDS011;21464;48.112;11.530;2023-04-03T13:00:48;3.77;;;2.60;;
35364;SDS011;21464;48.112;11.530;2023-04-03T13:03:28;3.17;;;2.50;;
35364;SDS011;21464;48.112;11.530;2023-04-03T13:05:59;2.57;;;2.30;;
35364;SDS011;21464;48.112;11.530;2023-04-03T13:08:27;3.60;;;2.63;;
35364;SDS011;21464;48.112;11.530;2023-04-03T13:13:27;4.67;;;2.70;;
35364;SDS011;21464;48.112;11.530;2023-04-03T13:15:53;3.80;;;2.50;;
35364;SDS011;21464;48.112;11.530;2023-04-03T13:18:30;3.13;;;2.70;;
35364;SDS011;21464;48.112;11.530;2023-04-03T13:21:00;2.83;;;2.53;;
35364;SDS011;21464;48.112;11.530;2023-04-03T13:23:50;4.30;;;2.67;;
35364;SDS011;21464;48.112;11.530;2023-04-03T13:26:18;5.23;;;3.70;;
35364;SDS011;21464;48.112;11.530;2023-04-03T13:28:46;3.40;;;2.30;;
35364;SDS011;21464;48.112;11.530;2023-04-03T13:36:21;2.40;;;2.10;;
35364;SDS011;21464;48.112;11.530;2023-04-03T13:39:03;2.70;;;2.50;;
35364;SDS011;21464;48.112;11.530;2023-04-03T13:41:34;2.35;;;2.15;;
35364;SDS011;21464;48.112;11.530;2023-04-03T13:49:59;2.75;;;2.50;;
35364;SDS011;21464;48.112;11.530;2023-04-03T13:53:20;3.45;;;2.22;;
35364;SDS011;21464;48.112;11.530;2023-04-03T13:55:31;3.17;;;2.20;;
35364;SDS011;21464;48.112;11.530;2023-04-03T14:00:35;2.40;;;2.08;;
35364;SDS011;21464;48.112;11.530;2023-04-03T14:03:19;4.50;;;3.65;;
35364;SDS011;21464;48.112;11.530;2023-04-03T14:05:48;3.58;;;2.13;;
35364;SDS011;21464;48.112;11.530;2023-04-03T14:08:14;3.15;;;2.70;;
35364;SDS011;21464;48.112;11.530;2023-04-03T14:10:41;3.58;;;2.58;;
35364;SDS011;21464;48.112;11.530;2023-04-03T14:13:12;3.45;;;2.28;;
35364;SDS011;21464;48.112;11.530;2023-04-03T14:15:39;4.47;;;3.13;;
35364;SDS011;21464;48.112;11.530;2023-04-03T14:18:06;3.38;;;2.83;;
35364;SDS011;21464;48.112;11.530;2023-04-03T14:20:35;2.90;;;2.70;;
35364;SDS011;21464;48.112;11.530;2023-04-03T14:23:01;2.97;;;2.43;;
35364;SDS011;21464;48.112;11.530;2023-04-03T14:25:27;4.17;;;2.50;;
35364;SDS011;21464;48.112;11.530;2023-04-03T14:27:54;3.00;;;2.40;;
35364;SDS011;21464;48.112;11.530;2023-04-03T14:30:26;2.27;;;2.07;;
35364;SDS011;21464;48.112;11.530;2023-04-03T14:32:54;4.93;;;2.63;;
35364;SDS011;21464;48.112;11.530;2023-04-03T14:35:21;3.10;;;2.30;;
35364;SDS011;21464;48.112;11.530;2023-04-03T14:37:48;3.20;;;2.90;;
35364;SDS011;21464;48.112;11.530;2023-04-03T14:40:17;3.17;;;2.87;;
35364;SDS011;21464;48.112;11.530;2023-04-03T14:42:45;2.80;;;2.53;;
35364;SDS011;21464;48.112;11.530;2023-04-03T14:45:14;4.53;;;2.50;;
35364;SDS011;21464;48.112;11.530;2023-04-03T14:47:46;5.00;;;2.92;;
35364;SDS011;21464;48.112;11.530;2023-04-03T14:50:17;3.25;;;2.72;;
35364;SDS011;21464;48.112;11.530;2023-04-03T14:52:47;3.58;;;2.50;;
35364;SDS011;21464;48.112;11.530;2023-04-03T14:55:17;2.42;;;2.22;;
35364;SDS011;21464;48.112;11.530;2023-04-03T14:57:46;2.60;;;2.13;;
35364;SDS011;21464;48.112;11.530;2023-04-03T15:00:13;2.58;;;2.13;;
35364;SDS011;21464;48.112;11.530;2023-04-03T15:02:41;3.17;;;2.25;;
35364;SDS011;21464;48.112;11.530;2023-04-03T15:05:08;3.53;;;2.20;;
35364;SDS011;21464;48.112;11.530;2023-04-03T15:07:37;3.08;;;2.65;;
35364;SDS011;21464;48.112;11.530;2023-04-03T15:12:40;2.53;;;2.23;;
35364;SDS011;21464;48.112;11.530;2023-04-03T15:15:07;3.37;;;2.50;;
35364;SDS011;21464;48.112;11.530;2023-04-03T15:17:34;4.37;;;3.07;;
35364;SDS011;21464;48.112;11.530;2023-04-03T15:20:01;5.50;;;3.73;;
35364;SDS011;21464;48.112;11.530;2023-04-03T15:22:28;3.63;;;2.80;;
35364;SDS011;21464;48.112;11.530;2023-04-03T15:24:54;4.83;;;2.67;;
35364;SDS011;21464;48.112;11.530;2023-04-03T15:27:20;2.60;;;2.40;;
35364;SDS011;21464;48.112;11.530;2023-04-03T15:29:47;5.60;;;3.40;;
35364;SDS011;21464;48.112;11.530;2023-04-03T15:32:13;6.17;;;3.70;;
35364;SDS011;21464;48.112;11.530;2023-04-03T15:34:39;2.90;;;2.60;;
35364;SDS011;21464;48.112;11.530;2023-04-03T15:37:06;4.20;;;2.53;;
35364;SDS011;21464;48.112;11.530;2023-04-03T15:39:32;5.43;;;3.37;;
35364;SDS011;21464;48.112;11.530;2023-04-03T15:41:58;3.83;;;2.63;;
35364;SDS011;21464;48.112;11.530;2023-04-03T15:44:34;3.20;;;2.00;;
35364;SDS011;21464;48.112;11.530;2023-04-03T15:47:00;4.53;;;2.87;;
35364;SDS011;21464;48.112;11.530;2023-04-03T15:49:27;3.57;;;2.70;;
35364;SDS011;21464;48.112;11.530;2023-04-03T15:51:53;3.40;;;2.40;;
35364;SDS011;21464;48.112;11.530;2023-04-03T15:54:19;2.40;;;2.20;;
35364;SDS011;21464;48.112;11.530;2023-04-03T15:56:46;3.23;;;2.70;;
35364;SDS011;21464;48.112;11.530;2023-04-03T15:59:12;3.17;;;2.40;;
35364;SDS011;21464;48.112;11.530;2023-04-03T16:01:39;3.87;;;2.23;;
35364;SDS011;21464;48.112;11.530;2023-04-03T16:04:07;4.17;;;3.00;;
35364;SDS011;21464;48.112;11.530;2023-04-03T16:06:34;2.17;;;1.97;;
35364;SDS011;21464;48.112;11.530;2023-04-03T16:09:00;3.27;;;2.20;;
35364;SDS011;21464;48.112;11.530;2023-04-03T16:11:27;3.40;;;2.60;;
35364;SDS011;21464;48.112;11.530;2023-04-03T16:13:53;4.20;;;2.73;;
35364;SDS011;21464;48.112;11.530;2023-04-03T16:16:20;2.97;;;2.40;;
35364;SDS011;21464;48.112;11.530;2023-04-03T16:18:46;4.50;;;3.60;;
35364;SDS011;21464;48.112;11.530;2023-04-03T16:21:13;3.77;;;3.27;;
35364;SDS011;21464;48.112;11.530;2023-04-03T16:23:40;2.63;;;2.10;;
35364;SDS011;21464;48.112;11.530;2023-04-03T16:26:06;2.93;;;2.67;;
35364;SDS011;21464;48.112;11.530;2023-04-03T16:28:33;4.03;;;2.63;;
35364;SDS011;21464;48.112;11.530;2023-04-03T16:30:59;4.00;;;3.10;;
35364;SDS011;21464;48.112;11.530;2023-04-03T16:33:26;5.40;;;3.23;;
35364;SDS011;21464;48.112;11.530;2023-04-03T16:35:52;4.43;;;2.60;;
35364;SDS011;21464;48.112;11.530;2023-04-03T16:38:19;3.80;;;2.93;;
35364;SDS011;21464;48.112;11.530;2023-04-03T16:40:45;3.53;;;3.23;;
35364;SDS011;21464;48.112;11.530;2023-04-03T16:43:12;5.97;;;2.90;;
35364;SDS011;21464;48.112;11.530;2023-04-03T16:45:38;2.67;;;2.27;;
35364;SDS011;21464;48.112;11.530;2023-04-03T16:48:04;3.13;;;2.83;;
35364;SDS011;21464;48.112;11.530;2023-04-03T16:50:31;3.73;;;2.33;;
35364;SDS011;21464;48.112;11.530;2023-04-03T16:52:58;3.57;;;2.50;;
35364;SDS011;21464;48.112;11.530;2023-04-03T16:55:24;3.73;;;2.40;;
35364;SDS011;21464;48.112;11.530;2023-04-03T16:57:50;4.60;;;3.50;;